Time;durP1;ratioP1;P1;durP2;ratioP2;P2;SDS_P1;SDS_P2;PMS_P1;PMS_P2;Temp;Humidity;BMP_temperature;BMP_pressure;BME280_temperature;BME280_humidity;BME280_pressure;Samples;Min_cycle;Max_cycle;Signal;HPM_P1;HPM_P2
2024/01/28 00:00:37;;;;;;;1.20;1.10;;;0.50;99.90;;;;;;5137317;27;20078;-68
2024/01/28 00:03:03;;;;;;;1.20;1.10;;;0.50;99.90;;;;;;5136902;27;20082;-68
2024/01/28 00:05:29;;;;;;;1.30;1.20;;;0.50;99.90;;;;;;5136653;27;20101;-68
2024/01/28 00:07:55;;;;;;;1.30;1.20;;;0.50;99.90;;;;;;5136586;27;20086;-68
2024/01/28 00:10:21;;;;;;;1.27;1.17;;;0.50;99.90;;;;;;5136989;27;20082;-68
2024/01/28 00:12:47;;;;;;;1.30;1.20;;;0.40;99.90;;;;;;5123784;27;20042;-68
2024/01/28 00:15:12;;;;;;;1.25;1.15;;;0.40;99.90;;;;;;5157107;27;20035;-68
2024/01/28 00:17:38;;;;;;;1.27;1.17;;;0.40;99.90;;;;;;5152047;27;20039;-68
2024/01/28 00:20:05;;;;;;;6.85;5.00;;;0.30;99.90;;;;;;5136427;27;20428;-68
2024/01/28 00:22:31;;;;;;;;;;;0.30;99.90;;;;;;5136899;27;20047;-68
2024/01/28 00:24:57;;;;;;;1.20;1.10;;;0.30;99.90;;;;;;5152840;27;20051;-68
2024/01/28 00:27:23;;;;;;;1.20;1.10;;;0.30;99.90;;;;;;5157194;27;20078;-68
2024/01/28 00:29:48;;;;;;;1.20;1.10;;;0.30;99.90;;;;;;5157050;27;20081;-68
2024/01/28 00:32:14;;;;;;;1.30;1.20;;;0.30;99.90;;;;;;5155015;27;20095;-68
2024/01/28 00:34:40;;;;;;;1.20;1.10;;;0.30;99.90;;;;;;5136232;27;20131;-69
2024/01/28 00:37:06;;;;;;;1.38;1.27;;;0.20;99.90;;;;;;5136035;27;20441;-68
2024/01/28 00:39:32;;;;;;;1.35;1.25;;;0.20;99.90;;;;;;5117557;27;20043;-68
2024/01/28 00:41:58;;;;;;;1.30;1.20;;;0.20;99.90;;;;;;5150920;27;20042;-68
2024/01/28 00:44:24;;;;;;;1.38;1.27;;;0.20;99.90;;;;;;5156567;27;20130;-68
2024/01/28 00:46:49;;;;;;;3.67;3.15;;;1.50;99.90;;;;;;5156938;27;20463;-68
2024/01/28 00:49:15;;;;;;;1.30;1.20;;;0.20;99.90;;;;;;5156611;27;20043;-68
2024/01/28 00:51:41;;;;;;;1.50;1.40;;;0.20;99.90;;;;;;5156510;27;20084;-68
2024/01/28 00:54:07;;;;;;;1.30;1.20;;;0.20;99.90;;;;;;5156991;27;20039;-68
2024/01/28 00:56:33;;;;;;;1.50;1.40;;;0.20;99.90;;;;;;5156692;27;20046;-68
2024/01/28 00:58:59;;;;;;;1.30;1.20;;;0.30;99.90;;;;;;5156515;27;20125;-68
2024/01/28 01:01:24;;;;;;;1.30;1.20;;;0.20;99.90;;;;;;5156512;27;20126;-68
2024/01/28 01:03:50;;;;;;;1.20;1.10;;;0.20;99.90;;;;;;5149297;27;20042;-68
2024/01/28 01:06:16;;;;;;;1.30;1.20;;;0.20;99.90;;;;;;5144925;27;20043;-68
2024/01/28 01:08:41;;;;;;;1.20;1.10;;;0.20;99.90;;;;;;5135735;27;20128;-68
2024/01/28 01:11:07;;;;;;;1.20;1.10;;;0.20;99.90;;;;;;5135509;27;20039;-68
2024/01/28 01:13:34;;;;;;;1.23;1.13;;;0.20;99.90;;;;;;5135218;27;20096;-68
2024/01/28 01:15:59;;;;;;;1.20;1.10;;;0.30;99.90;;;;;;5135345;27;20035;-68
2024/01/28 01:18:25;;;;;;;1.30;1.20;;;0.20;99.90;;;;;;5135332;27;20126;-68
2024/01/28 01:20:53;;;;;;;1.30;1.20;;;0.20;99.90;;;;;;5135856;27;20043;-68
2024/01/28 01:23:18;;;;;;;1.45;1.35;;;0.30;99.90;;;;;;5135307;27;20126;-68
2024/01/28 01:25:44;;;;;;;1.20;1.10;;;0.30;99.90;;;;;;5135009;27;20078;-68
2024/01/28 01:28:10;;;;;;;5.20;1.23;;;0.30;99.90;;;;;;5117468;27;20043;-68
2024/01/28 01:30:35;;;;;;;1.30;1.20;;;0.20;99.90;;;;;;5135130;27;20047;-68
2024/01/28 01:33:01;;;;;;;1.30;1.20;;;0.30;99.90;;;;;;5135429;27;20126;-68
2024/01/28 01:35:27;;;;;;;1.30;1.20;;;0.30;99.90;;;;;;5135069;27;20514;-68
2024/01/28 01:37:54;;;;;;;1.20;1.10;;;0.30;99.90;;;;;;5135093;27;20054;-68
2024/01/28 01:40:20;;;;;;;1.30;1.20;;;0.20;99.90;;;;;;5135063;27;20078;-68
2024/01/28 01:42:46;;;;;;;2.10;1.92;;;0.20;99.90;;;;;;5134972;27;20096;-68
2024/01/28 01:45:12;;;;;;;1.20;1.10;;;0.30;99.90;;;;;;5134884;27;20047;-68
2024/01/28 01:47:39;;;;;;;1.20;1.10;;;0.30;99.90;;;;;;5134583;27;20116;-68
2024/01/28 01:50:07;;;;;;;2.13;2.03;;;0.30;99.90;;;;;;5134901;27;20051;-68
2024/01/28 01:52:33;;;;;;;1.30;1.20;;;0.30;99.90;;;;;;5134894;27;20063;-68
2024/01/28 01:54:58;;;;;;;1.27;1.17;;;0.30;99.90;;;;;;5134998;27;20047;-68
2024/01/28 01:57:25;;;;;;;1.30;1.20;;;0.30;99.90;;;;;;5134586;27;20047;-68
2024/01/28 01:59:51;;;;;;;1.20;1.10;;;0.30;99.90;;;;;;5134883;27;20049;-68
2024/01/28 02:02:18;;;;;;;1.20;1.10;;;0.30;99.90;;;;;;5134595;27;20050;-68
2024/01/28 02:04:44;;;;;;;1.20;1.10;;;0.30;99.90;;;;;;5138631;27;20074;-68
2024/01/28 02:07:10;;;;;;;1.30;1.20;;;0.30;99.90;;;;;;5155720;27;20074;-68
2024/01/28 02:09:35;;;;;;;1.30;1.20;;;0.30;99.90;;;;;;5155382;27;20451;-68
2024/01/28 02:12:01;;;;;;;1.27;1.17;;;0.20;99.90;;;;;;5158154;27;20402;-68
2024/01/28 02:14:28;;;;;;;1.30;1.20;;;0.30;99.90;;;;;;5162263;27;20090;-68
2024/01/28 02:16:55;;;;;;;;;;;0.30;99.90;;;;;;5162616;27;20121;-68
2024/01/28 02:19:21;;;;;;;1.25;1.15;;;0.30;99.90;;;;;;5162200;27;19980;-68
2024/01/28 02:21:46;;;;;;;1.30;1.20;;;0.30;99.90;;;;;;5162156;27;20091;-68
2024/01/28 02:24:13;;;;;;;1.20;1.10;;;0.30;99.90;;;;;;5162128;27;20399;-68
2024/01/28 02:26:40;;;;;;;1.50;1.40;;;0.30;99.90;;;;;;5161900;27;20038;-68
2024/01/28 02:29:06;;;;;;;1.30;1.20;;;0.30;99.90;;;;;;5162099;27;20054;-68
2024/01/28 02:31:31;;;;;;;1.30;1.20;;;0.30;99.90;;;;;;5162089;27;20038;-68
2024/01/28 02:33:58;;;;;;;1.20;1.10;;;0.30;99.90;;;;;;5161709;27;20053;-68
2024/01/28 02:36:24;;;;;;;1.30;1.20;;;0.30;99.90;;;;;;5143716;27;20095;-68
2024/01/28 02:38:50;;;;;;;1.20;1.10;;;0.30;99.90;;;;;;5162189;27;20126;-68
2024/01/28 02:41:15;;;;;;;1.20;1.10;;;0.30;99.90;;;;;;5162048;27;20134;-68
2024/01/28 02:43:41;;;;;;;1.20;1.10;;;0.40;99.90;;;;;;5161907;27;20042;-68
2024/01/28 02:46:07;;;;;;;1.40;1.30;;;0.30;99.90;;;;;;5162018;27;20035;-68
2024/01/28 02:48:32;;;;;;;1.30;1.20;;;0.40;99.90;;;;;;5161858;27;20129;-68
2024/01/28 02:50:58;;;;;;;1.25;1.15;;;0.40;99.90;;;;;;5161811;27;20043;-68
2024/01/28 02:53:24;;;;;;;1.30;1.20;;;0.40;99.90;;;;;;5161810;27;20047;-68
2024/01/28 02:55:49;;;;;;;1.20;1.10;;;0.40;99.90;;;;;;5153697;27;20093;-68
2024/01/28 02:58:16;;;;;;;1.10;1.00;;;0.40;99.90;;;;;;5160542;27;20046;-68
2024/01/28 03:00:42;;;;;;;1.40;1.30;;;1.90;99.90;;;;;;5161801;27;20047;-68
2024/01/28 03:03:08;;;;;;;1.60;1.50;;;0.40;99.90;;;;;;5161391;27;20045;-68
2024/01/28 03:05:34;;;;;;;1.25;1.15;;;0.40;99.90;;;;;;5161390;27;20493;-68
2024/01/28 03:08:00;;;;;;;1.30;1.20;;;0.40;99.90;;;;;;5162153;27;20118;-68
2024/01/28 03:10:26;;;;;;;1.20;1.10;;;0.40;99.90;;;;;;5131182;27;20134;-68
2024/01/28 03:12:52;;;;;;;1.20;1.10;;;0.50;99.90;;;;;;5140932;27;20058;-68
2024/01/28 03:15:19;;;;;;;1.30;1.20;;;0.50;99.90;;;;;;5140688;27;20406;-68
2024/01/28 03:17:44;;;;;;;1.20;1.10;;;0.60;99.90;;;;;;5140833;27;20065;-68
2024/01/28 03:20:10;;;;;;;2.95;2.75;;;0.60;99.90;;;;;;5140775;27;20121;-68
2024/01/28 03:22:36;;;;;;;1.30;1.20;;;0.60;99.90;;;;;;5140901;27;20054;-68
2024/01/28 03:25:02;;;;;;;1.20;1.10;;;0.60;99.90;;;;;;5136354;27;20039;-68
2024/01/28 03:27:27;;;;;;;1.48;1.38;;;0.60;99.90;;;;;;5137575;27;20046;-68
2024/01/28 03:29:53;;;;;;;1.35;1.25;;;0.60;99.90;;;;;;5137471;27;20047;-69
2024/01/28 03:32:18;;;;;;;1.40;1.30;;;0.60;99.90;;;;;;5137442;27;20085;-68
2024/01/28 03:34:44;;;;;;;1.30;1.20;;;0.70;99.90;;;;;;5137249;27;20444;-68
2024/01/28 03:37:09;;;;;;;1.30;1.20;;;0.60;99.90;;;;;;5137450;27;20040;-69
2024/01/28 03:39:35;;;;;;;1.20;1.10;;;0.60;99.90;;;;;;5137342;27;20078;-68
2024/01/28 03:42:01;;;;;;;1.30;1.20;;;0.60;99.90;;;;;;5137192;27;20088;-69
2024/01/28 03:44:26;;;;;;;1.67;1.58;;;0.60;99.90;;;;;;5137094;27;20046;-68
2024/01/28 03:46:54;;;;;;;1.50;1.40;;;0.60;99.90;;;;;;5137119;27;20035;-68
2024/01/28 03:49:20;;;;;;;1.30;1.20;;;0.80;99.90;;;;;;5136838;27;20039;-68
2024/01/28 03:51:46;;;;;;;1.60;1.50;;;0.60;99.90;;;;;;5136911;27;20108;-68
2024/01/28 03:54:12;;;;;;;1.30;1.20;;;0.60;99.90;;;;;;5137326;27;20047;-69
2024/01/28 03:56:40;;;;;;;2.15;2.05;;;0.50;99.90;;;;;;5136998;27;20043;-68
2024/01/28 03:59:06;;;;;;;1.30;1.20;;;0.50;99.90;;;;;;5137043;27;20047;-68
2024/01/28 04:01:33;;;;;;;1.17;1.07;;;0.50;99.90;;;;;;5118511;27;20417;-68
2024/01/28 04:03:59;;;;;;;1.30;1.20;;;0.50;99.90;;;;;;5136757;27;20273;-68
2024/01/28 04:06:25;;;;;;;1.30;1.20;;;0.50;99.90;;;;;;5136669;27;20046;-68
2024/01/28 04:08:57;;;;;;;1.50;1.40;;;0.40;99.90;;;;;;5136893;27;20050;-68
2024/01/28 04:11:26;;;;;;;1.20;1.10;;;0.40;99.90;;;;;;5118589;27;20092;-68
2024/01/28 04:13:54;;;;;;;1.30;1.20;;;0.40;99.90;;;;;;5136591;27;20035;-68
2024/01/28 04:16:20;;;;;;;1.60;1.50;;;0.40;99.90;;;;;;5136352;27;20035;-68
2024/01/28 04:18:46;;;;;;;1.27;1.17;;;0.40;99.90;;;;;;5136539;27;20051;-68
2024/01/28 04:21:12;;;;;;;1.25;1.15;;;0.30;99.90;;;;;;5136523;27;20039;-69
2024/01/28 04:23:41;;;;;;;1.38;1.27;;;0.30;99.90;;;;;;5136491;27;20043;-68
2024/01/28 04:26:07;;;;;;;1.30;1.20;;;0.30;99.90;;;;;;5136107;27;20042;-68
2024/01/28 04:28:33;;;;;;;1.23;1.13;;;0.30;99.90;;;;;;5136438;27;20043;-68
2024/01/28 04:30:59;;;;;;;1.30;1.20;;;0.20;99.90;;;;;;5136335;27;20531;-68
2024/01/28 04:33:24;;;;;;;1.20;1.10;;;0.20;99.90;;;;;;5136330;27;20050;-68
2024/01/28 04:35:50;;;;;;;1.30;1.20;;;0.20;99.90;;;;;;5135861;27;20054;-68
2024/01/28 04:38:16;;;;;;;1.20;1.10;;;0.10;99.90;;;;;;5136128;27;20051;-68
2024/01/28 04:40:42;;;;;;;1.35;1.25;;;0.10;99.90;;;;;;5136225;27;20054;-68
2024/01/28 04:43:07;;;;;;;1.48;1.38;;;0.10;99.90;;;;;;5136082;27;20505;-69
2024/01/28 04:45:33;;;;;;;1.88;1.65;;;1.10;99.90;;;;;;5135816;27;20039;-68
2024/01/28 04:47:58;;;;;;;1.30;1.20;;;0.10;99.90;;;;;;5135948;27;20045;-68
2024/01/28 04:50:24;;;;;;;1.30;1.20;;;0.10;99.90;;;;;;5135965;27;20045;-69
2024/01/28 04:52:50;;;;;;;1.30;1.20;;;0.00;99.90;;;;;;5136265;27;20086;-68
2024/01/28 04:55:16;;;;;;;1.30;1.20;;;0.00;99.90;;;;;;5135807;27;20115;-68
2024/01/28 04:57:42;;;;;;;1.30;1.20;;;0.00;99.90;;;;;;5135986;27;20483;-68
2024/01/28 05:00:10;;;;;;;1.20;1.10;;;0.10;99.90;;;;;;5117650;27;20078;-68
2024/01/28 05:02:37;;;;;;;1.45;1.35;;;-0.10;99.90;;;;;;5135664;27;20055;-69
2024/01/28 05:05:03;;;;;;;1.30;1.20;;;-0.10;99.90;;;;;;5135623;27;20122;-68
2024/01/28 05:07:29;;;;;;;1.30;1.20;;;-0.10;99.90;;;;;;5135579;27;20129;-69
2024/01/28 05:09:55;;;;;;;1.30;1.20;;;-0.10;99.90;;;;;;5135588;27;20441;-68
2024/01/28 05:12:20;;;;;;;3.95;3.65;;;-0.10;99.90;;;;;;5135525;27;20080;-68
2024/01/28 05:14:46;;;;;;;1.30;1.20;;;-0.10;99.90;;;;;;5135351;27;20035;-69
2024/01/28 05:17:12;;;;;;;1.35;1.25;;;-0.20;99.90;;;;;;5135534;27;20099;-69
2024/01/28 05:19:38;;;;;;;1.20;1.10;;;-0.10;99.90;;;;;;5135357;27;20435;-68
2024/01/28 05:22:06;;;;;;;1.20;1.10;;;-0.20;99.90;;;;;;5135548;27;20039;-68
2024/01/28 05:24:32;;;;;;;1.20;1.10;;;-0.20;99.90;;;;;;5135229;27;20039;-68
2024/01/28 05:26:57;;;;;;;1.30;1.20;;;-0.20;99.90;;;;;;5135269;27;20042;-69
2024/01/28 05:29:23;;;;;;;1.33;1.20;;;-0.20;99.90;;;;;;5134949;27;20043;-68
2024/01/28 05:31:49;;;;;;;1.40;1.30;;;-0.20;99.90;;;;;;5117377;27;20043;-69
2024/01/28 05:34:14;;;;;;;1.30;1.20;;;-0.20;99.90;;;;;;5135147;27;20475;-68
2024/01/28 05:36:41;;;;;;;1.20;1.10;;;-0.30;99.90;;;;;;5134931;27;20047;-68
2024/01/28 05:39:07;;;;;;;1.30;1.20;;;-0.30;99.90;;;;;;5116869;27;20043;-69
2024/01/28 05:41:33;;;;;;;1.30;1.20;;;-0.30;99.90;;;;;;5116798;27;20077;-68
2024/01/28 05:43:58;;;;;;;1.83;1.73;;;-0.30;99.90;;;;;;5145585;27;20399;-69
2024/01/28 05:46:24;;;;;;;1.20;1.10;;;-0.30;99.90;;;;;;5149412;27;20038;-69
2024/01/28 05:48:50;;;;;;;1.20;1.10;;;-0.30;99.90;;;;;;5135090;27;20039;-69
2024/01/28 05:51:16;;;;;;;1.50;1.40;;;-0.30;99.90;;;;;;5134641;27;20150;-68
2024/01/28 05:53:42;;;;;;;1.23;1.13;;;-0.40;99.90;;;;;;5116891;27;20053;-69
2024/01/28 05:56:07;;;;;;;1.40;1.30;;;-0.40;99.90;;;;;;5155391;27;20121;-68
2024/01/28 05:58:33;;;;;;;1.40;1.30;;;-0.40;99.90;;;;;;5155237;27;20077;-68
2024/01/28 06:01:02;;;;;;;1.30;1.20;;;-0.40;99.90;;;;;;5138518;27;20039;-68
2024/01/28 06:03:28;;;;;;;1.25;1.15;;;-0.40;99.90;;;;;;5134619;27;20478;-69
2024/01/28 06:05:54;;;;;;;1.20;1.10;;;-0.40;99.90;;;;;;5116436;27;20183;-69
2024/01/28 06:08:20;;;;;;;1.40;1.30;;;-0.40;99.90;;;;;;5134563;27;20394;-68
2024/01/28 06:10:45;;;;;;;1.30;1.20;;;-0.40;99.90;;;;;;5139811;27;20125;-71
2024/01/28 06:13:11;;;;;;;1.30;1.20;;;-0.40;99.90;;;;;;5154989;27;20053;-70
2024/01/28 06:15:37;;;;;;;1.40;1.30;;;-0.50;99.90;;;;;;5155622;27;20039;-72
2024/01/28 06:18:03;;;;;;;1.38;1.27;;;-0.30;99.90;;;;;;5155180;27;20066;-69
2024/01/28 06:20:28;;;;;;;1.27;1.17;;;-0.40;99.90;;;;;;5155256;27;20482;-68
2024/01/28 06:22:54;;;;;;;1.30;1.20;;;-0.50;99.90;;;;;;5155317;27;20057;-69
2024/01/28 06:25:20;;;;;;;1.40;1.30;;;-0.50;99.90;;;;;;5155221;27;20050;-70
2024/01/28 06:27:48;;;;;;;1.40;1.30;;;-0.50;99.90;;;;;;5154949;27;20042;-68
2024/01/28 06:30:14;;;;;;;1.25;1.15;;;-0.50;99.90;;;;;;5143780;27;20122;-69
2024/01/28 06:32:39;;;;;;;1.40;1.30;;;-0.50;99.90;;;;;;5132949;27;20113;-70
2024/01/28 06:35:07;;;;;;;1.40;1.30;;;-0.50;99.90;;;;;;5154142;27;20544;-70
2024/01/28 06:37:32;;;;;;;1.30;1.20;;;-0.50;99.90;;;;;;5154603;27;20049;-68
2024/01/28 06:39:58;;;;;;;1.60;1.50;;;-0.50;99.90;;;;;;5154992;27;20038;-69
2024/01/28 06:42:25;;;;;;;1.30;1.20;;;-0.50;99.90;;;;;;5155015;27;20046;-69
2024/01/28 06:44:50;;;;;;;1.20;1.10;;;-0.50;99.90;;;;;;5154968;27;20129;-68
2024/01/28 06:47:16;;;;;;;1.30;1.20;;;-0.50;99.90;;;;;;5154901;27;20074;-68
2024/01/28 06:49:41;;;;;;;1.60;1.50;;;-0.50;99.90;;;;;;5154889;27;20439;-69
2024/01/28 06:52:08;;;;;;;1.30;1.20;;;-0.50;99.90;;;;;;5154205;27;20062;-68
2024/01/28 06:54:33;;;;;;;1.30;1.20;;;-0.50;99.90;;;;;;5135912;27;20406;-68
2024/01/28 06:56:59;;;;;;;3.63;3.40;;;-0.50;99.90;;;;;;5137715;27;20039;-71
2024/01/28 06:59:24;;;;;;;1.40;1.30;;;-0.50;99.90;;;;;;5148094;27;20247;-69
2024/01/28 07:01:50;;;;;;;1.33;1.23;;;-0.50;99.90;;;;;;5140129;27;20049;-69
2024/01/28 07:04:16;;;;;;;1.30;1.20;;;-0.50;99.90;;;;;;5149133;27;20320;-70
2024/01/28 07:06:41;;;;;;;1.30;1.20;;;-0.50;99.90;;;;;;5139449;27;20133;-70
2024/01/28 07:09:08;;;;;;;1.30;1.20;;;-0.50;99.90;;;;;;5158298;27;20115;-70
2024/01/28 07:11:33;;;;;;;1.65;1.55;;;-0.50;99.90;;;;;;5158242;27;20121;-68
2024/01/28 07:13:59;;;;;;;1.50;1.40;;;-0.60;99.90;;;;;;5139839;27;20134;-70
2024/01/28 07:16:25;;;;;;;1.42;1.33;;;-0.50;99.90;;;;;;5158238;27;20077;-69
2024/01/28 07:18:52;;;;;;;1.30;1.20;;;-0.50;99.90;;;;;;5157573;27;20489;-69
2024/01/28 07:21:18;;;;;;;1.40;1.30;;;-0.50;99.90;;;;;;5154447;27;20038;-71
2024/01/28 07:23:43;;;;;;;1.30;1.20;;;0.50;99.90;;;;;;5158038;27;20049;-70
2024/01/28 07:26:09;;;;;;;1.30;1.20;;;-0.50;99.90;;;;;;5152855;27;20080;-70
2024/01/28 07:28:35;;;;;;;1.20;1.10;;;-0.50;99.90;;;;;;5151168;27;20051;-70
2024/01/28 07:31:01;;;;;;;1.30;1.20;;;-0.50;99.90;;;;;;5158186;27;20481;-68
2024/01/28 07:33:26;;;;;;;1.30;1.20;;;-0.50;99.90;;;;;;5158289;27;20042;-70
2024/01/28 07:35:52;;;;;;;1.30;1.20;;;-0.40;99.90;;;;;;5157457;27;20047;-73
2024/01/28 07:38:17;;;;;;;1.30;1.20;;;-0.40;99.90;;;;;;5156442;27;20066;-70
2024/01/28 07:40:43;;;;;;;1.30;1.20;;;-0.50;99.90;;;;;;5156730;27;20509;-70
2024/01/28 07:43:09;;;;;;;1.50;1.40;;;-0.40;99.90;;;;;;5156070;27;20371;-75
2024/01/28 07:45:37;;;;;;;1.30;1.20;;;-0.40;99.90;;;;;;5139507;27;20474;-76
2024/01/28 07:48:03;;;;;;;1.30;1.20;;;-0.10;99.90;;;;;;5157939;27;20125;-72
2024/01/28 07:50:29;;;;;;;1.40;1.30;;;-0.40;99.90;;;;;;5157573;27;20050;-74
2024/01/28 07:52:54;;;;;;;1.33;1.23;;;-0.40;99.90;;;;;;5157397;27;20141;-70
2024/01/28 07:55:20;;;;;;;1.30;1.20;;;-0.40;99.90;;;;;;5155562;27;20051;-73
2024/01/28 07:57:45;;;;;;;2.15;2.03;;;-0.40;99.90;;;;;;5121926;27;20050;-68
2024/01/28 08:00:12;;;;;;;1.30;1.20;;;-0.40;99.90;;;;;;5139406;27;20107;-71
2024/01/28 08:02:37;;;;;;;1.20;1.10;;;-0.40;99.90;;;;;;5157602;27;20077;-72
2024/01/28 08:05:03;;;;;;;1.30;1.20;;;-0.30;99.90;;;;;;5157278;27;20070;-70
2024/01/28 08:07:29;;;;;;;1.30;1.20;;;-0.30;99.90;;;;;;5156790;27;20078;-72
2024/01/28 08:09:55;;;;;;;1.30;1.20;;;0.60;99.90;;;;;;5138603;27;20072;-68
2024/01/28 08:12:20;;;;;;;1.30;1.20;;;-0.30;99.90;;;;;;5157179;27;20046;-71
2024/01/28 08:14:46;;;;;;;1.30;1.20;;;-0.30;99.90;;;;;;5157363;27;20058;-68
2024/01/28 08:17:12;;;;;;;1.20;1.10;;;-0.30;99.90;;;;;;5157414;27;20042;-70
2024/01/28 08:19:38;;;;;;;1.40;1.30;;;-0.10;99.90;;;;;;5157747;27;20184;-71
2024/01/28 08:22:04;;;;;;;1.30;1.20;;;-0.20;99.90;;;;;;5157377;27;20042;-71
2024/01/28 08:24:30;;;;;;;1.20;1.10;;;-0.20;99.90;;;;;;5121961;27;20426;-72
2024/01/28 08:26:56;;;;;;;1.30;1.20;;;-0.10;99.90;;;;;;5157141;27;20049;-68
2024/01/28 08:29:22;;;;;;;1.50;1.40;;;-0.10;99.90;;;;;;5156858;27;20493;-68
2024/01/28 08:31:48;;;;;;;1.38;1.27;;;0.00;99.90;;;;;;5157382;27;20047;-78
2024/01/28 08:34:14;;;;;;;1.20;1.10;;;0.10;99.90;;;;;;5121436;27;20119;-71
2024/01/28 08:36:39;;;;;;;1.30;1.20;;;0.10;99.90;;;;;;5138539;27;20089;-71
2024/01/28 08:39:05;;;;;;;2.10;1.30;;;0.20;99.90;;;;;;5157234;27;20382;-72
2024/01/28 08:41:31;;;;;;;1.30;1.20;;;0.30;99.90;;;;;;5157001;27;20045;-71
2024/01/28 08:43:57;;;;;;;1.20;1.10;;;0.30;99.90;;;;;;5156767;27;20045;-70
2024/01/28 08:46:23;;;;;;;1.30;1.20;;;0.40;99.90;;;;;;5156694;27;20046;-76
2024/01/28 08:48:48;;;;;;;1.20;1.10;;;0.50;99.90;;;;;;5156779;27;20085;-70
2024/01/28 08:51:14;;;;;;;1.20;1.10;;;0.60;99.90;;;;;;5156618;27;20494;-71
2024/01/28 08:53:42;;;;;;;1.30;1.20;;;0.60;99.90;;;;;;5138515;27;20043;-72
2024/01/28 08:56:07;;;;;;;1.20;1.10;;;0.70;99.90;;;;;;5156251;27;20043;-71
2024/01/28 08:58:33;;;;;;;1.30;1.20;;;0.80;99.90;;;;;;5154340;27;20046;-70
2024/01/28 09:00:59;;;;;;;1.20;1.10;;;0.80;99.90;;;;;;5154153;27;20551;-73
2024/01/28 09:03:24;;;;;;;1.20;1.10;;;0.90;99.90;;;;;;5154403;27;20045;-72
2024/01/28 09:05:50;;;;;;;1.20;1.10;;;0.90;99.90;;;;;;5154056;27;20459;-72
2024/01/28 09:08:15;;;;;;;1.30;1.20;;;1.00;99.90;;;;;;5154293;27;20057;-71
2024/01/28 09:10:41;;;;;;;1.20;1.10;;;1.10;99.90;;;;;;5154002;27;20047;-71
2024/01/28 09:13:07;;;;;;;1.20;1.10;;;1.10;99.90;;;;;;5155275;27;20045;-71
2024/01/28 09:15:33;;;;;;;1.10;1.00;;;1.20;99.90;;;;;;5156178;27;20042;-70
2024/01/28 09:17:58;;;;;;;1.20;1.10;;;1.30;99.90;;;;;;5156243;27;20039;-69
2024/01/28 09:20:24;;;;;;;1.30;1.20;;;1.40;99.90;;;;;;5156309;27;20039;-69
2024/01/28 09:22:49;;;;;;;1.42;1.33;;;1.50;99.90;;;;;;5155074;27;20091;-72
2024/01/28 09:25:15;;;;;;;1.70;1.60;;;1.50;99.90;;;;;;5156361;27;20042;-72
2024/01/28 09:27:42;;;;;;;1.20;1.10;;;1.60;99.90;;;;;;5155655;27;20054;-72
2024/01/28 09:30:10;;;;;;;1.10;1.00;;;1.70;99.90;;;;;;5156045;27;20047;-73
2024/01/28 09:32:36;;;;;;;1.20;1.10;;;1.80;99.90;;;;;;5155848;27;20050;-70
2024/01/28 09:35:01;;;;;;;1.20;1.10;;;1.80;99.90;;;;;;5155650;27;20440;-71
2024/01/28 09:37:27;;;;;;;1.20;1.10;;;1.90;99.90;;;;;;5137340;27;20042;-69
2024/01/28 09:39:52;;;;;;;1.10;1.00;;;2.00;99.90;;;;;;5155896;27;20054;-71
2024/01/28 09:42:37;;;;;;;1.20;1.10;;;2.00;99.90;;;;;;5155659;27;20045;-72
2024/01/28 09:45:04;;;;;;;1.52;1.42;;;2.10;99.90;;;;;;5156156;27;20047;-71
2024/01/28 09:47:32;;;;;;;1.20;1.10;;;2.20;99.90;;;;;;5155502;27;20047;-69
2024/01/28 09:50:00;;;;;;;1.10;1.00;;;2.30;99.90;;;;;;5155536;27;20042;-70
2024/01/28 09:52:27;;;;;;;1.55;1.20;;;2.30;99.90;;;;;;5155078;27;20405;-72
2024/01/28 09:54:52;;;;;;;1.10;1.00;;;2.40;99.90;;;;;;5155454;27;20051;-72
2024/01/28 09:57:18;;;;;;;1.17;1.08;;;2.50;99.90;;;;;;5155404;27;20087;-70
2024/01/28 09:59:45;;;;;;;1.20;1.10;;;2.50;99.90;;;;;;5137545;27;20043;-71
2024/01/28 10:02:14;;;;;;;1.20;1.10;;;2.60;99.90;;;;;;5155655;27;20155;-71
2024/01/28 10:04:40;;;;;;;1.10;1.00;;;2.70;99.90;;;;;;5155372;27;20049;-71
2024/01/28 10:07:09;;;;;;;1.20;1.10;;;2.70;99.90;;;;;;5155356;27;20073;-69
2024/01/28 10:09:34;;;;;;;1.10;1.00;;;2.80;99.90;;;;;;5155169;27;20172;-72
2024/01/28 10:12:04;;;;;;;1.10;1.00;;;2.80;99.90;;;;;;5155331;27;20129;-71
2024/01/28 10:14:30;;;;;;;1.20;1.10;;;2.90;99.90;;;;;;5155258;27;20042;-70
2024/01/28 10:16:57;;;;;;;1.10;1.00;;;2.90;99.90;;;;;;5155196;27;20050;-70
2024/01/28 10:19:22;;;;;;;;;;;3.00;99.90;;;;;;5155692;27;20133;-70
2024/01/28 10:21:48;;;;;;;0.90;0.90;;;3.00;99.90;;;;;;5155226;27;19970;-71
2024/01/28 10:24:16;;;;;;;2.10;1.90;;;3.00;99.90;;;;;;5155117;27;20035;-70
2024/01/28 10:26:42;;;;;;;1.10;1.00;;;3.10;99.90;;;;;;5155020;27;20039;-72
2024/01/28 10:29:09;;;;;;;1.10;1.00;;;3.10;99.90;;;;;;5155090;27;20050;-71
2024/01/28 10:31:34;;;;;;;1.10;1.00;;;3.30;99.90;;;;;;5154797;27;20479;-72
2024/01/28 10:34:00;;;;;;;1.10;1.00;;;3.30;99.90;;;;;;5157679;27;20060;-71
2024/01/28 10:36:26;;;;;;;1.23;1.13;;;3.40;99.90;;;;;;5159430;27;20090;-71
2024/01/28 10:39:00;;;;;;;1.10;1.00;;;3.40;99.90;;;;;;5159268;27;20095;-71
2024/01/28 10:41:26;;;;;;;1.20;1.10;;;3.50;99.90;;;;;;5140728;27;20494;-70
2024/01/28 10:43:57;;;;;;;1.10;1.00;;;3.60;99.90;;;;;;5158994;27;20050;-72
2024/01/28 10:46:36;;;;;;;0.90;0.90;;;3.60;99.90;;;;;;5159446;27;20039;-71
2024/01/28 10:49:06;;;;;;;1.08;0.98;;;3.70;99.90;;;;;;5159146;27;20035;-71
2024/01/28 10:51:37;;;;;;;1.27;1.10;;;3.80;99.90;;;;;;5158590;27;20471;-72
2024/01/28 10:54:04;;;;;;;1.20;1.10;;;3.90;99.90;;;;;;5159209;27;20180;-72
2024/01/28 10:56:39;;;;;;;0.90;0.90;;;4.00;99.90;;;;;;5158943;27;20183;-72
2024/01/28 10:59:05;;;;;;;1.08;1.00;;;4.10;99.90;;;;;;5159281;27;20124;-72
2024/01/28 11:01:33;;;;;;;0.90;0.90;;;4.20;99.90;;;;;;5158795;27;20079;-72
2024/01/28 11:03:59;;;;;;;0.90;0.90;;;4.30;99.90;;;;;;5158438;27;20099;-74
2024/01/28 11:06:30;;;;;;;0.90;0.90;;;4.30;99.90;;;;;;5158723;27;20035;-72
2024/01/28 11:08:55;;;;;;;0.90;0.90;;;4.40;99.90;;;;;;5158762;27;20047;-71
2024/01/28 11:11:22;;;;;;;1.00;1.00;;;4.50;99.90;;;;;;5158549;27;20052;-72
2024/01/28 11:13:48;;;;;;;1.30;1.20;;;4.50;99.90;;;;;;5158447;27;20080;-73
2024/01/28 11:16:15;;;;;;;1.10;1.00;;;4.70;99.90;;;;;;5158742;27;20385;-71
2024/01/28 11:19:11;;;;;;;0.90;0.90;;;4.70;99.90;;;;;;5158530;27;20391;-69
2024/01/28 11:21:40;;;;;;;0.80;0.80;;;4.80;99.90;;;;;;5158553;27;20050;-71
2024/01/28 11:24:09;;;;;;;1.10;1.00;;;4.80;99.90;;;;;;5158455;27;20050;-70
2024/01/28 11:26:37;;;;;;;2.10;1.90;;;4.90;99.90;;;;;;5158366;27;20208;-71
2024/01/28 11:29:05;;;;;;;1.02;0.93;;;5.00;99.90;;;;;;5139636;27;20446;-71
2024/01/28 11:31:33;;;;;;;1.00;0.90;;;5.10;99.90;;;;;;5158365;27;20058;-73
2024/01/28 11:34:15;;;;;;;1.30;1.20;;;5.20;99.90;;;;;;5158530;27;20486;-73
2024/01/28 11:36:45;;;;;;;1.20;1.10;;;5.30;99.90;;;;;;5139712;27;20095;-70
2024/01/28 11:39:13;;;;;;;0.90;0.90;;;5.30;99.90;;;;;;5157698;27;20047;-69
2024/01/28 11:41:41;;;;;;;2.55;2.35;;;5.40;99.90;;;;;;5157961;27;20098;-74
2024/01/28 11:44:10;;;;;;;0.90;0.90;;;5.50;99.90;;;;;;5157072;27;20573;-71
2024/01/28 11:46:39;;;;;;;0.80;0.80;;;5.70;99.90;;;;;;5137587;27;20911;-73
2024/01/28 11:49:06;;;;;;;0.95;0.95;;;5.70;99.90;;;;;;5154415;27;20046;-70
2024/01/28 11:51:33;;;;;;;1.30;1.20;;;6.70;99.90;;;;;;5139132;27;20107;-70
2024/01/28 11:54:03;;;;;;;2.65;2.10;;;5.80;99.90;;;;;;5157594;27;20089;-68
2024/01/28 11:56:33;;;;;;;11.48;2.88;;;5.90;99.90;;;;;;5138678;27;20078;-71
2024/01/28 11:58:59;;;;;;;0.80;0.80;;;6.60;99.90;;;;;;5156471;27;20050;-71
2024/01/28 12:01:25;;;;;;;0.80;0.80;;;6.10;99.90;;;;;;5157428;27;20046;-70
2024/01/28 12:03:54;;;;;;;0.73;0.73;;;6.20;99.90;;;;;;5157556;27;20129;-70
2024/01/28 12:06:24;;;;;;;0.80;0.80;;;6.40;99.90;;;;;;5157416;27;20363;-70
2024/01/28 12:08:50;;;;;;;0.75;0.75;;;6.30;99.90;;;;;;5157376;27;20126;-71
2024/01/28 12:11:20;;;;;;;1.17;1.08;;;6.40;99.90;;;;;;5157347;27;20047;-73
2024/01/28 12:13:46;;;;;;;0.90;0.90;;;6.40;99.90;;;;;;5156490;27;20047;-74
2024/01/28 12:16:12;;;;;;;1.00;1.00;;;6.40;99.90;;;;;;5138565;27;20046;-70
2024/01/28 12:18:39;;;;;;;0.70;0.70;;;6.60;99.90;;;;;;5157271;27;20118;-70
2024/01/28 12:21:19;;;;;;;0.90;0.90;;;6.60;99.90;;;;;;5157109;27;20107;-70
2024/01/28 12:23:51;;;;;;;0.80;0.80;;;6.70;99.90;;;;;;5157305;27;20042;-69
2024/01/28 12:26:17;;;;;;;0.80;0.80;;;6.70;99.90;;;;;;5138785;27;20046;-68
2024/01/28 12:28:45;;;;;;;0.80;0.80;;;6.80;99.90;;;;;;5156541;27;20042;-68
2024/01/28 12:31:11;;;;;;;0.77;0.77;;;6.80;99.90;;;;;;5157125;27;20272;-72
2024/01/28 12:33:37;;;;;;;0.80;0.80;;;6.90;99.90;;;;;;5138650;27;20060;-71
2024/01/28 12:36:02;;;;;;;0.80;0.80;;;6.90;99.90;;;;;;5156275;27;20046;-70
2024/01/28 12:38:28;;;;;;;0.80;0.80;;;6.90;99.90;;;;;;5142215;27;20046;-69
2024/01/28 12:40:54;;;;;;;1.15;1.05;;;7.00;99.90;;;;;;5137895;27;20038;-69
2024/01/28 12:43:20;;;;;;;0.90;0.90;;;7.00;99.90;;;;;;5155895;27;20444;-69
2024/01/28 12:45:45;;;;;;;0.90;0.90;;;7.10;99.90;;;;;;5155644;27;20050;-71
2024/01/28 12:48:11;;;;;;;0.80;0.80;;;7.10;99.90;;;;;;5156247;27;20035;-70
2024/01/28 12:50:36;;;;;;;0.95;0.90;;;7.20;99.90;;;;;;5155852;27;20118;-70